sensor_id;sensor_type;location;lat;lon;timestamp;pressure;altitude;pressure_sealevel;temperature;humidity
55656;BME280;41530;52.382;5.270;2023-02-12T00:01:10;104060.72;;;15.13;54.88
55656;BME280;41530;52.382;5.270;2023-02-12T00:03:39;104068.56;;;15.16;54.73
55656;BME280;41530;52.382;5.270;2023-02-12T00:06:07;104065.00;;;15.17;54.59
55656;BME280;41530;52.382;5.270;2023-02-12T00:08:35;104067.69;;;15.16;54.26
55656;BME280;41530;52.382;5.270;2023-02-12T00:11:18;104063.31;;;15.15;54.44
55656;BME280;41530;52.382;5.270;2023-02-12T00:13:45;104060.66;;;15.15;54.35
55656;BME280;41530;52.382;5.270;2023-02-12T00:16:15;104062.44;;;15.14;54.41
55656;BME280;41530;52.382;5.270;2023-02-12T00:18:43;104072.19;;;15.14;54.36
55656;BME280;41530;52.382;5.270;2023-02-12T00:21:10;104069.59;;;15.12;54.17
55656;BME280;41530;52.382;5.270;2023-02-12T00:23:38;104059.91;;;15.11;54.15
55656;BME280;41530;52.382;5.270;2023-02-12T00:26:08;104064.22;;;15.14;53.89
55656;BME280;41530;52.382;5.270;2023-02-12T00:28:35;104062.50;;;15.13;53.80
55656;BME280;41530;52.382;5.270;2023-02-12T00:31:07;104066.94;;;15.12;53.87
55656;BME280;41530;52.382;5.270;2023-02-12T00:33:34;104062.50;;;15.13;54.16
55656;BME280;41530;52.382;5.270;2023-02-12T00:36:00;104061.63;;;15.12;54.29
55656;BME280;41530;52.382;5.270;2023-02-12T00:38:27;104064.28;;;15.12;53.85
55656;BME280;41530;52.382;5.270;2023-02-12T00:40:54;104072.28;;;15.11;54.00
55656;BME280;41530;52.382;5.270;2023-02-12T00:43:20;104067.91;;;15.10;53.92
55656;BME280;41530;52.382;5.270;2023-02-12T00:45:47;104064.38;;;15.09;53.88
55656;BME280;41530;52.382;5.270;2023-02-12T00:48:14;104068.81;;;15.09;53.93
55656;BME280;41530;52.382;5.270;2023-02-12T00:50:44;104059.16;;;15.08;53.53
55656;BME280;41530;52.382;5.270;2023-02-12T00:53:11;104063.59;;;15.07;53.36
55656;BME280;41530;52.382;5.270;2023-02-12T00:55:37;104061.84;;;15.06;53.17
55656;BME280;41530;52.382;5.270;2023-02-12T00:58:04;104060.94;;;15.07;53.52
55656;BME280;41530;52.382;5.270;2023-02-12T01:00:31;104051.28;;;15.05;53.12
55656;BME280;41530;52.382;5.270;2023-02-12T01:02:58;104056.59;;;15.05;53.18
55656;BME280;41530;52.382;5.270;2023-02-12T01:05:25;104061.91;;;15.05;53.62
55656;BME280;41530;52.382;5.270;2023-02-12T01:07:52;104054.81;;;15.05;53.16
55656;BME280;41530;52.382;5.270;2023-02-12T01:10:20;104058.41;;;15.04;53.08
55656;BME280;41530;52.382;5.270;2023-02-12T01:12:47;104061.06;;;15.04;53.08
55656;BME280;41530;52.382;5.270;2023-02-12T01:15:14;104063.72;;;15.04;52.88
55656;BME280;41530;52.382;5.270;2023-02-12T01:17:41;104062.84;;;15.04;53.03
55656;BME280;41530;52.382;5.270;2023-02-12T01:20:12;104064.63;;;15.03;53.02
55656;BME280;41530;52.382;5.270;2023-02-12T01:22:39;104074.38;;;15.03;52.73
55656;BME280;41530;52.382;5.270;2023-02-12T01:25:06;104070.00;;;15.02;52.82
55656;BME280;41530;52.382;5.270;2023-02-12T01:27:33;104069.13;;;15.01;52.65
55656;BME280;41530;52.382;5.270;2023-02-12T01:29:59;104069.13;;;15.01;52.70
55656;BME280;41530;52.382;5.270;2023-02-12T01:32:26;104073.56;;;15.01;52.67
55656;BME280;41530;52.382;5.270;2023-02-12T01:34:53;104071.03;;;14.97;52.63
55656;BME280;41530;52.382;5.270;2023-02-12T01:37:20;104075.41;;;14.98;52.50
55656;BME280;41530;52.382;5.270;2023-02-12T01:39:46;104076.31;;;14.97;52.60
55656;BME280;41530;52.382;5.270;2023-02-12T01:42:13;104078.06;;;14.98;52.56
55656;BME280;41530;52.382;5.270;2023-02-12T01:45:17;104078.06;;;14.98;52.62
55656;BME280;41530;52.382;5.270;2023-02-12T01:47:31;104084.28;;;14.97;52.42
55656;BME280;41530;52.382;5.270;2023-02-12T01:49:58;104079.94;;;14.95;52.41
55656;BME280;41530;52.382;5.270;2023-02-12T01:52:31;104075.50;;;14.95;52.47
55656;BME280;41530;52.382;5.270;2023-02-12T01:55:03;104079.94;;;14.95;52.34
55656;BME280;41530;52.382;5.270;2023-02-12T01:57:32;104073.78;;;14.94;52.31
55656;BME280;41530;52.382;5.270;2023-02-12T02:00:01;104063.19;;;14.94;52.34
55656;BME280;41530;52.382;5.270;2023-02-12T02:02:30;104066.75;;;14.93;52.25
55656;BME280;41530;52.382;5.270;2023-02-12T02:05:00;104071.19;;;14.93;52.29
55656;BME280;41530;52.382;5.270;2023-02-12T02:07:28;104070.31;;;14.92;52.28
55656;BME280;41530;52.382;5.270;2023-02-12T02:09:56;104076.53;;;14.91;52.18
55656;BME280;41530;52.382;5.270;2023-02-12T02:12:24;104078.34;;;14.91;52.09
55656;BME280;41530;52.382;5.270;2023-02-12T02:15:10;104069.59;;;14.89;52.25
55656;BME280;41530;52.382;5.270;2023-02-12T02:17:54;104079.28;;;14.90;52.17
55656;BME280;41530;52.382;5.270;2023-02-12T02:29:49;104066.13;;;14.87;51.99
55656;BME280;41530;52.382;5.270;2023-02-12T02:31:46;104064.38;;;14.86;52.08
55656;BME280;41530;52.382;5.270;2023-02-12T02:36:59;104056.59;;;14.81;52.10
55656;BME280;41530;52.382;5.270;2023-02-12T02:42:07;104048.75;;;14.78;51.94
55656;BME280;41530;52.382;5.270;2023-02-12T02:44:46;104061.78;;;14.84;51.95
55656;BME280;41530;52.382;5.270;2023-02-12T02:47:16;104051.34;;;14.80;51.97
55656;BME280;41530;52.382;5.270;2023-02-12T02:49:52;104044.19;;;14.82;51.89
55656;BME280;41530;52.382;5.270;2023-02-12T02:52:25;104042.41;;;14.82;51.95
55656;BME280;41530;52.382;5.270;2023-02-12T02:54:57;104041.66;;;14.79;51.92
55656;BME280;41530;52.382;5.270;2023-02-12T02:57:58;104045.13;;;14.81;51.86
55656;BME280;41530;52.382;5.270;2023-02-12T03:00:37;104044.25;;;14.80;51.81
55656;BME280;41530;52.382;5.270;2023-02-12T03:03:09;104039.19;;;14.74;52.05
55656;BME280;41530;52.382;5.270;2023-02-12T03:05:43;104047.16;;;14.74;51.80
55656;BME280;41530;52.382;5.270;2023-02-12T03:08:28;104039.19;;;14.74;51.87
55656;BME280;41530;52.382;5.270;2023-02-12T03:11:09;104045.38;;;14.75;51.77
55656;BME280;41530;52.382;5.270;2023-02-12T03:16:32;104041.84;;;14.74;51.77
55656;BME280;41530;52.382;5.270;2023-02-12T03:19:22;104045.38;;;14.75;51.74
55656;BME280;41530;52.382;5.270;2023-02-12T03:24:30;104039.19;;;14.74;51.77
55656;BME280;41530;52.382;5.270;2023-02-12T03:27:14;104040.13;;;14.73;51.76
55656;BME280;41530;52.382;5.270;2023-02-12T03:29:42;104032.31;;;14.69;51.72
55656;BME280;41530;52.382;5.270;2023-02-12T03:34:49;104043.69;;;14.72;51.62
55656;BME280;41530;52.382;5.270;2023-02-12T03:37:30;104032.41;;;14.66;51.78
55656;BME280;41530;52.382;5.270;2023-02-12T03:48:10;104059.69;;;14.69;51.77
55656;BME280;41530;52.382;5.270;2023-02-12T03:51:00;104049.13;;;14.68;51.75
55656;BME280;41530;52.382;5.270;2023-02-12T03:53:28;104039.50;;;14.65;51.86
55656;BME280;41530;52.382;5.270;2023-02-12T03:56:04;104046.63;;;14.65;51.68
55656;BME280;41530;52.382;5.270;2023-02-12T03:58:34;104053.56;;;14.67;51.63
55656;BME280;41530;52.382;5.270;2023-02-12T04:01:02;104051.97;;;14.63;51.59
55656;BME280;41530;52.382;5.270;2023-02-12T04:03:30;104051.97;;;14.63;51.69
55656;BME280;41530;52.382;5.270;2023-02-12T04:05:57;104049.28;;;14.65;51.70
55656;BME280;41530;52.382;5.270;2023-02-12T04:08:24;104050.19;;;14.64;51.71
55656;BME280;41530;52.382;5.270;2023-02-12T04:11:07;104064.19;;;14.67;51.71
55656;BME280;41530;52.382;5.270;2023-02-12T04:16:34;104063.34;;;14.65;51.67
55656;BME280;41530;52.382;5.270;2023-02-12T04:19:06;104073.19;;;14.63;51.80
55656;BME280;41530;52.382;5.270;2023-02-12T04:24:24;104070.53;;;14.63;51.70
55656;BME280;41530;52.382;5.270;2023-02-12T04:26:59;104075.06;;;14.59;51.81
55656;BME280;41530;52.382;5.270;2023-02-12T04:29:54;104079.34;;;14.64;51.71
55656;BME280;41530;52.382;5.270;2023-02-12T04:37:44;104085.72;;;14.58;51.63
55656;BME280;41530;52.382;5.270;2023-02-12T04:40:14;104085.59;;;14.61;51.85
55656;BME280;41530;52.382;5.270;2023-02-12T04:42:47;104083.81;;;14.61;51.96
55656;BME280;41530;52.382;5.270;2023-02-12T04:45:18;104091.78;;;14.61;52.03
55656;BME280;41530;52.382;5.270;2023-02-12T04:47:46;104085.66;;;14.59;51.78
55656;BME280;41530;52.382;5.270;2023-02-12T04:50:13;104096.16;;;14.63;51.79
55656;BME280;41530;52.382;5.270;2023-02-12T04:52:39;104096.16;;;14.63;51.90
55656;BME280;41530;52.382;5.270;2023-02-12T04:55:06;104092.75;;;14.59;51.90
55656;BME280;41530;52.382;5.270;2023-02-12T04:57:33;104097.94;;;14.62;51.83
55656;BME280;41530;52.382;5.270;2023-02-12T04:59:59;104095.28;;;14.62;52.06
55656;BME280;41530;52.382;5.270;2023-02-12T05:02:26;104094.44;;;14.61;51.81
55656;BME280;41530;52.382;5.270;2023-02-12T05:04:52;104096.16;;;14.63;51.72
55656;BME280;41530;52.382;5.270;2023-02-12T05:07:19;104087.34;;;14.62;51.87
55656;BME280;41530;52.382;5.270;2023-02-12T05:09:46;104090.91;;;14.61;51.92
55656;BME280;41530;52.382;5.270;2023-02-12T05:12:12;104089.19;;;14.60;51.93
55656;BME280;41530;52.382;5.270;2023-02-12T05:14:39;104093.56;;;14.61;51.86
55656;BME280;41530;52.382;5.270;2023-02-12T05:17:05;104087.44;;;14.59;51.84
55656;BME280;41530;52.382;5.270;2023-02-12T05:19:32;104094.47;;;14.60;51.87
55656;BME280;41530;52.382;5.270;2023-02-12T05:21:59;104095.34;;;14.60;51.97
55656;BME280;41530;52.382;5.270;2023-02-12T05:24:25;104092.78;;;14.57;51.93
55656;BME280;41530;52.382;5.270;2023-02-12T05:26:52;104090.16;;;14.57;51.97
55656;BME280;41530;52.382;5.270;2023-02-12T05:29:18;104099.78;;;14.60;51.85
55656;BME280;41530;52.382;5.270;2023-02-12T05:31:45;104095.34;;;14.60;51.74
55656;BME280;41530;52.382;5.270;2023-02-12T05:34:12;104095.38;;;14.59;51.86
55656;BME280;41530;52.382;5.270;2023-02-12T05:36:39;104101.50;;;14.61;51.96
55656;BME280;41530;52.382;5.270;2023-02-12T05:39:06;104103.25;;;14.62;51.85
55656;BME280;41530;52.382;5.270;2023-02-12T05:41:33;104100.59;;;14.62;51.85
55656;BME280;41530;52.382;5.270;2023-02-12T05:44:04;104100.59;;;14.62;51.86
55656;BME280;41530;52.382;5.270;2023-02-12T05:46:32;104102.31;;;14.63;51.76
55656;BME280;41530;52.382;5.270;2023-02-12T05:48:59;104099.72;;;14.61;51.82
55656;BME280;41530;52.382;5.270;2023-02-12T05:51:26;104097.94;;;14.62;51.78
55656;BME280;41530;52.382;5.270;2023-02-12T05:54:02;104098.81;;;14.63;51.74
55656;BME280;41530;52.382;5.270;2023-02-12T05:56:32;104098.91;;;14.59;51.75
55656;BME280;41530;52.382;5.270;2023-02-12T05:59:05;104099.81;;;14.58;51.84
55656;BME280;41530;52.382;5.270;2023-02-12T06:01:36;104097.13;;;14.60;51.93
55656;BME280;41530;52.382;5.270;2023-02-12T06:04:04;104091.97;;;14.55;51.83
55656;BME280;41530;52.382;5.270;2023-02-12T06:06:32;104104.22;;;14.59;51.74
55656;BME280;41530;52.382;5.270;2023-02-12T06:08:59;104105.06;;;14.60;51.79
55656;BME280;41530;52.382;5.270;2023-02-12T06:11:27;104107.69;;;14.61;51.82
55656;BME280;41530;52.382;5.270;2023-02-12T06:13:53;104102.53;;;14.57;51.84
55656;BME280;41530;52.382;5.270;2023-02-12T06:16:21;104100.63;;;14.60;51.79
55656;BME280;41530;52.382;5.270;2023-02-12T06:18:49;104101.59;;;14.58;51.84
55656;BME280;41530;52.382;5.270;2023-02-12T06:21:17;104105.06;;;14.60;51.83
55656;BME280;41530;52.382;5.270;2023-02-12T06:23:44;104101.66;;;14.56;51.74
55656;BME280;41530;52.382;5.270;2023-02-12T06:26:11;104100.63;;;14.60;51.80
55656;BME280;41530;52.382;5.270;2023-02-12T06:28:38;104100.69;;;14.59;51.86
55656;BME280;41530;52.382;5.270;2023-02-12T06:31:05;104103.28;;;14.60;51.79
55656;BME280;41530;52.382;5.270;2023-02-12T06:33:42;104101.56;;;14.59;51.65
55656;BME280;41530;52.382;5.270;2023-02-12T06:36:08;104106.84;;;14.59;51.84
55656;BME280;41530;52.382;5.270;2023-02-12T06:38:35;104102.44;;;14.60;51.82
55656;BME280;41530;52.382;5.270;2023-02-12T06:41:02;104106.81;;;14.61;51.88
55656;BME280;41530;52.382;5.270;2023-02-12T06:43:29;104097.28;;;14.55;51.76
55656;BME280;41530;52.382;5.270;2023-02-12T06:45:59;104102.44;;;14.60;51.82
55656;BME280;41530;52.382;5.270;2023-02-12T06:48:26;104111.25;;;14.60;51.82
55656;BME280;41530;52.382;5.270;2023-02-12T06:50:53;104109.50;;;14.59;51.83
55656;BME280;41530;52.382;5.270;2023-02-12T06:53:20;104104.25;;;14.58;51.81
55656;BME280;41530;52.382;5.270;2023-02-12T06:55:46;104115.66;;;14.60;51.73
55656;BME280;41530;52.382;5.270;2023-02-12T06:58:13;104103.53;;;14.53;51.58
55656;BME280;41530;52.382;5.270;2023-02-12T07:00:39;104114.81;;;14.59;51.79
55656;BME280;41530;52.382;5.270;2023-02-12T07:03:06;104124.53;;;14.59;51.77
55656;BME280;41530;52.382;5.270;2023-02-12T07:05:33;104122.00;;;14.56;51.71
55656;BME280;41530;52.382;5.270;2023-02-12T07:08:03;104115.00;;;14.53;51.74
55656;BME280;41530;52.382;5.270;2023-02-12T07:10:29;104120.25;;;14.55;51.70
55656;BME280;41530;52.382;5.270;2023-02-12T07:12:56;104129.84;;;14.59;51.80
55656;BME280;41530;52.382;5.270;2023-02-12T07:15:23;104117.59;;;14.55;51.87
55656;BME280;41530;52.382;5.270;2023-02-12T07:17:49;104122.75;;;14.59;51.59
55656;BME280;41530;52.382;5.270;2023-02-12T07:20:16;104122.81;;;14.58;51.77
55656;BME280;41530;52.382;5.270;2023-02-12T07:22:42;104118.41;;;14.57;51.53
55656;BME280;41530;52.382;5.270;2023-02-12T07:25:09;104135.13;;;14.59;51.81
55656;BME280;41530;52.382;5.270;2023-02-12T07:27:36;104129.97;;;14.54;51.68
55656;BME280;41530;52.382;5.270;2023-02-12T07:30:06;104143.97;;;14.59;51.64
55656;BME280;41530;52.382;5.270;2023-02-12T07:32:33;104146.59;;;14.59;51.48
55656;BME280;41530;52.382;5.270;2023-02-12T07:35:00;104135.19;;;14.57;51.74
55656;BME280;41530;52.382;5.270;2023-02-12T07:37:26;104141.41;;;14.56;51.69
55656;BME280;41530;52.382;5.270;2023-02-12T07:39:53;104142.38;;;14.54;51.66
55656;BME280;41530;52.382;5.270;2023-02-12T07:42:20;104148.53;;;14.54;51.83
55656;BME280;41530;52.382;5.270;2023-02-12T07:44:47;104145.88;;;14.54;51.88
55656;BME280;41530;52.382;5.270;2023-02-12T07:47:15;104155.56;;;14.55;51.96
55656;BME280;41530;52.382;5.270;2023-02-12T07:49:41;104160.72;;;14.60;52.08
55656;BME280;41530;52.382;5.270;2023-02-12T07:52:08;104162.50;;;14.59;52.41
55656;BME280;41530;52.382;5.270;2023-02-12T07:54:38;104154.66;;;14.56;52.09
55656;BME280;41530;52.382;5.270;2023-02-12T07:57:05;104164.25;;;14.60;52.41
55656;BME280;41530;52.382;5.270;2023-02-12T07:59:31;104173.00;;;14.63;52.13
55656;BME280;41530;52.382;5.270;2023-02-12T08:01:59;104165.94;;;14.63;52.60
55656;BME280;41530;52.382;5.270;2023-02-12T08:04:26;104170.41;;;14.61;52.13
55656;BME280;41530;52.382;5.270;2023-02-12T08:06:55;104176.47;;;14.65;52.22
55656;BME280;41530;52.382;5.270;2023-02-12T08:09:26;104169.38;;;14.65;52.10
55656;BME280;41530;52.382;5.270;2023-02-12T08:11:53;104174.78;;;14.62;52.21
55656;BME280;41530;52.382;5.270;2023-02-12T08:14:21;104172.88;;;14.66;52.08
55656;BME280;41530;52.382;5.270;2023-02-12T08:16:48;104171.22;;;14.63;52.23
55656;BME280;41530;52.382;5.270;2023-02-12T08:19:16;104178.13;;;14.67;52.15
55656;BME280;41530;52.382;5.270;2023-02-12T08:21:50;104175.47;;;14.67;52.01
55656;BME280;41530;52.382;5.270;2023-02-12T08:24:17;104180.78;;;14.67;52.24
55656;BME280;41530;52.382;5.270;2023-02-12T08:26:44;104175.72;;;14.61;52.12
55656;BME280;41530;52.382;5.270;2023-02-12T08:29:17;104187.81;;;14.68;52.50
55656;BME280;41530;52.382;5.270;2023-02-12T08:31:46;104187.81;;;14.68;52.05
55656;BME280;41530;52.382;5.270;2023-02-12T08:34:22;104188.69;;;14.69;52.16
55656;BME280;41530;52.382;5.270;2023-02-12T08:36:50;104192.25;;;14.68;52.19
55656;BME280;41530;52.382;5.270;2023-02-12T08:39:19;104194.03;;;14.67;51.93
55656;BME280;41530;52.382;5.270;2023-02-12T08:41:46;104203.81;;;14.65;52.02
55656;BME280;41530;52.382;5.270;2023-02-12T08:44:14;104205.72;;;14.61;51.99
55656;BME280;41530;52.382;5.270;2023-02-12T08:46:46;104201.38;;;14.59;51.90
55656;BME280;41530;52.382;5.270;2023-02-12T08:49:18;104204.00;;;14.60;52.05
55656;BME280;41530;52.382;5.270;2023-02-12T08:51:48;104201.47;;;14.56;52.15
55656;BME280;41530;52.382;5.270;2023-02-12T08:54:20;104212.03;;;14.57;52.10
55656;BME280;41530;52.382;5.270;2023-02-12T08:56:48;104204.13;;;14.56;52.12
55656;BME280;41530;52.382;5.270;2023-02-12T08:59:16;104199.91;;;14.50;52.13
55656;BME280;41530;52.382;5.270;2023-02-12T09:01:43;104211.25;;;14.54;52.03
55656;BME280;41530;52.382;5.270;2023-02-12T09:04:25;104213.91;;;14.54;52.31
55656;BME280;41530;52.382;5.270;2023-02-12T09:06:52;104214.81;;;14.53;52.15
55656;BME280;41530;52.382;5.270;2023-02-12T09:09:20;104225.41;;;14.53;52.18
55656;BME280;41530;52.382;5.270;2023-02-12T09:11:47;104216.69;;;14.51;52.24
55656;BME280;41530;52.382;5.270;2023-02-12T09:14:15;104227.28;;;14.51;52.22
55656;BME280;41530;52.382;5.270;2023-02-12T09:16:42;104216.78;;;14.48;52.18
55656;BME280;41530;52.382;5.270;2023-02-12T09:19:11;104217.69;;;14.47;52.24
55656;BME280;41530;52.382;5.270;2023-02-12T09:21:38;104218.59;;;14.46;52.13
55656;BME280;41530;52.382;5.270;2023-02-12T09:24:05;104229.94;;;14.51;52.50
55656;BME280;41530;52.382;5.270;2023-02-12T09:26:31;104222.81;;;14.51;52.67
55656;BME280;41530;52.382;5.270;2023-02-12T09:29:01;104225.31;;;14.56;52.78
55656;BME280;41530;52.382;5.270;2023-02-12T09:31:30;104223.59;;;14.55;52.46
55656;BME280;41530;52.382;5.270;2023-02-12T09:33:59;104225.25;;;14.59;52.50
55656;BME280;41530;52.382;5.270;2023-02-12T09:36:27;104217.28;;;14.59;52.68
55656;BME280;41530;52.382;5.270;2023-02-12T09:38:54;104215.56;;;14.58;52.57
55656;BME280;41530;52.382;5.270;2023-02-12T09:49:25;104227.66;;;14.65;53.03
55656;BME280;41530;52.382;5.270;2023-02-12T09:51:52;104218.88;;;14.65;52.83
55656;BME280;41530;52.382;5.270;2023-02-12T09:54:22;104210.09;;;14.63;52.90
55656;BME280;41530;52.382;5.270;2023-02-12T09:56:57;104215.28;;;14.66;53.18
55656;BME280;41530;52.382;5.270;2023-02-12T09:59:43;104218.81;;;14.66;53.10
55656;BME280;41530;52.382;5.270;2023-02-12T10:02:17;104215.22;;;14.67;53.24
55656;BME280;41530;52.382;5.270;2023-02-12T10:04:47;104217.00;;;14.67;53.36
55656;BME280;41530;52.382;5.270;2023-02-12T10:12:57;104222.13;;;14.73;53.61
55656;BME280;41530;52.382;5.270;2023-02-12T10:15:37;104217.69;;;14.73;53.57
55656;BME280;41530;52.382;5.270;2023-02-12T10:21:08;104218.50;;;14.75;53.58
55656;BME280;41530;52.382;5.270;2023-02-12T10:26:30;104215.88;;;14.75;53.94
55656;BME280;41530;52.382;5.270;2023-02-12T10:29:04;104214.19;;;14.73;53.82
55656;BME280;41530;52.382;5.270;2023-02-12T10:31:39;104219.38;;;14.76;53.60
55656;BME280;41530;52.382;5.270;2023-02-12T10:34:20;104217.66;;;14.75;53.60
55656;BME280;41530;52.382;5.270;2023-02-12T10:36:48;104225.50;;;14.78;54.01
55656;BME280;41530;52.382;5.270;2023-02-12T10:39:25;104221.91;;;14.79;53.60
55656;BME280;41530;52.382;5.270;2023-02-12T10:42:08;104222.78;;;14.79;53.89
55656;BME280;41530;52.382;5.270;2023-02-12T10:44:36;104219.34;;;14.77;53.63
55656;BME280;41530;52.382;5.270;2023-02-12T10:47:03;104226.25;;;14.81;53.50
55656;BME280;41530;52.382;5.270;2023-02-12T10:49:31;104226.28;;;14.80;53.54
55656;BME280;41530;52.382;5.270;2023-02-12T10:52:31;104225.38;;;14.81;53.96
55656;BME280;41530;52.382;5.270;2023-02-12T10:55:00;104215.69;;;14.80;53.64
55656;BME280;41530;52.382;5.270;2023-02-12T10:57:29;104230.63;;;14.82;53.80
55656;BME280;41530;52.382;5.270;2023-02-12T11:00:34;104225.31;;;14.82;53.98
55656;BME280;41530;52.382;5.270;2023-02-12T11:05:32;104214.69;;;14.84;53.89
55656;BME280;41530;52.382;5.270;2023-02-12T11:08:01;104212.94;;;14.83;53.68
55656;BME280;41530;52.382;5.270;2023-02-12T11:12:58;104219.06;;;14.85;53.67
55656;BME280;41530;52.382;5.270;2023-02-12T11:15:45;104222.63;;;14.84;54.07
55656;BME280;41530;52.382;5.270;2023-02-12T11:18:21;104220.78;;;14.86;53.84
55656;BME280;41530;52.382;5.270;2023-02-12T11:20:56;104204.03;;;14.85;54.13
55656;BME280;41530;52.382;5.270;2023-02-12T11:23:33;104207.59;;;14.84;54.10
55656;BME280;41530;52.382;5.270;2023-02-12T11:26:05;104211.88;;;14.88;54.00
55656;BME280;41530;52.382;5.270;2023-02-12T11:28:34;104215.34;;;14.90;54.01
55656;BME280;41530;52.382;5.270;2023-02-12T11:31:19;104209.19;;;14.90;53.95
55656;BME280;41530;52.382;5.270;2023-02-12T11:36:35;104207.41;;;14.90;53.97
55656;BME280;41530;52.382;5.270;2023-02-12T11:39:02;104205.47;;;14.94;53.65
55656;BME280;41530;52.382;5.270;2023-02-12T11:41:38;104197.72;;;14.89;54.03
55656;BME280;41530;52.382;5.270;2023-02-12T11:44:11;104199.25;;;14.95;53.93
55656;BME280;41530;52.382;5.270;2023-02-12T11:46:39;104189.75;;;14.89;53.90
55656;BME280;41530;52.382;5.270;2023-02-12T11:49:20;104193.13;;;14.93;54.10
55656;BME280;41530;52.382;5.270;2023-02-12T11:51:48;104186.09;;;14.92;53.94
55656;BME280;41530;52.382;5.270;2023-02-12T11:54:25;104198.28;;;14.97;54.05
55656;BME280;41530;52.382;5.270;2023-02-12T11:56:53;104197.47;;;14.95;53.87
55656;BME280;41530;52.382;5.270;2023-02-12T12:01:56;104190.34;;;14.97;53.84
55656;BME280;41530;52.382;5.270;2023-02-12T12:04:26;104192.16;;;14.95;53.95
55656;BME280;41530;52.382;5.270;2023-02-12T12:07:01;104198.25;;;14.99;54.12
55656;BME280;41530;52.382;5.270;2023-02-12T12:09:45;104192.94;;;14.99;54.06
55656;BME280;41530;52.382;5.270;2023-02-12T12:12:22;104185.03;;;14.97;54.23
55656;BME280;41530;52.382;5.270;2023-02-12T12:15:01;104179.84;;;14.94;54.13
55656;BME280;41530;52.382;5.270;2023-02-12T12:17:55;104193.81;;;15.00;54.14
55656;BME280;41530;52.382;5.270;2023-02-12T12:20:47;104175.44;;;14.93;54.33
55656;BME280;41530;52.382;5.270;2023-02-12T12:23:34;104180.59;;;14.98;54.21
55656;BME280;41530;52.382;5.270;2023-02-12T12:26:32;104186.66;;;15.02;54.71
55656;BME280;41530;52.382;5.270;2023-02-12T12:29:21;104179.59;;;15.02;53.94
55656;BME280;41530;52.382;5.270;2023-02-12T12:31:56;104169.06;;;14.99;54.37
55656;BME280;41530;52.382;5.270;2023-02-12T12:34:26;104176.94;;;15.02;53.93
55656;BME280;41530;52.382;5.270;2023-02-12T12:45:26;104180.31;;;15.06;54.32
55656;BME280;41530;52.382;5.270;2023-02-12T12:51:22;104177.59;;;15.07;54.33
55656;BME280;41530;52.382;5.270;2023-02-12T13:08:21;104156.44;;;15.06;55.09
55656;BME280;41530;52.382;5.270;2023-02-12T13:11:19;104155.56;;;15.05;54.77
55656;BME280;41530;52.382;5.270;2023-02-12T13:13:58;104147.56;;;15.07;54.46
55656;BME280;41530;52.382;5.270;2023-02-12T13:16:37;104152.00;;;15.06;54.80
55656;BME280;41530;52.382;5.270;2023-02-12T13:24:42;104134.31;;;15.07;54.19
55656;BME280;41530;52.382;5.270;2023-02-12T13:27:23;104141.34;;;15.08;54.37
55656;BME280;41530;52.382;5.270;2023-02-12T13:30:02;104127.34;;;15.04;54.35
55656;BME280;41530;52.382;5.270;2023-02-12T13:32:37;104136.03;;;15.08;54.66
55656;BME280;41530;52.382;5.270;2023-02-12T13:35:14;104118.47;;;15.05;54.41
55656;BME280;41530;52.382;5.270;2023-02-12T13:37:44;104133.41;;;15.08;54.11
55656;BME280;41530;52.382;5.270;2023-02-12T13:40:18;104126.31;;;15.08;54.40
55656;BME280;41530;52.382;5.270;2023-02-12T13:51:13;104125.44;;;15.08;54.79
55656;BME280;41530;52.382;5.270;2023-02-12T13:54:13;104125.44;;;15.08;54.70
55656;BME280;41530;52.382;5.270;2023-02-12T13:56:44;104120.19;;;15.06;54.33
55656;BME280;41530;52.382;5.270;2023-02-12T14:01:58;104106.19;;;15.03;54.46
55656;BME280;41530;52.382;5.270;2023-02-12T14:04:32;104107.94;;;15.04;54.60
55656;BME280;41530;52.382;5.270;2023-02-12T14:07:14;104105.09;;;15.08;54.85
55656;BME280;41530;52.382;5.270;2023-02-12T14:09:45;104107.75;;;15.08;54.59
55656;BME280;41530;52.382;5.270;2023-02-12T14:15:03;104101.69;;;15.05;54.52
55656;BME280;41530;52.382;5.270;2023-02-12T14:20:20;104111.97;;;15.14;54.51
55656;BME280;41530;52.382;5.270;2023-02-12T14:30:31;104100.13;;;15.22;54.88
55656;BME280;41530;52.382;5.270;2023-02-12T14:33:08;104092.13;;;15.24;54.79
55656;BME280;41530;52.382;5.270;2023-02-12T14:35:38;104090.44;;;15.21;54.77
55656;BME280;41530;52.382;5.270;2023-02-12T14:41:32;104093.84;;;15.25;54.78
55656;BME280;41530;52.382;5.270;2023-02-12T14:46:53;104085.09;;;15.23;54.93
55656;BME280;41530;52.382;5.270;2023-02-12T14:49:31;104089.41;;;15.25;55.04
55656;BME280;41530;52.382;5.270;2023-02-12T14:52:22;104100.91;;;15.26;55.28
55656;BME280;41530;52.382;5.270;2023-02-12T14:54:55;104098.25;;;15.26;54.89
55656;BME280;41530;52.382;5.270;2023-02-12T15:02:40;104101.81;;;15.25;54.98
55656;BME280;41530;52.382;5.270;2023-02-12T15:05:15;104099.06;;;15.28;55.28
55656;BME280;41530;52.382;5.270;2023-02-12T15:08:52;104100.91;;;15.26;55.22
55656;BME280;41530;52.382;5.270;2023-02-12T15:14:18;104084.97;;;15.26;55.46
55656;BME280;41530;52.382;5.270;2023-02-12T15:17:08;104081.50;;;15.24;55.49
55656;BME280;41530;52.382;5.270;2023-02-12T15:19:48;104087.56;;;15.27;55.36
55656;BME280;41530;52.382;5.270;2023-02-12T15:22:25;104083.19;;;15.26;55.10
55656;BME280;41530;52.382;5.270;2023-02-12T15:25:20;104077.88;;;15.26;55.46
55656;BME280;41530;52.382;5.270;2023-02-12T15:27:49;104076.97;;;15.27;54.94
55656;BME280;41530;52.382;5.270;2023-02-12T15:30:19;104085.84;;;15.26;55.13
55656;BME280;41530;52.382;5.270;2023-02-12T15:32:54;104076.16;;;15.25;55.46
55656;BME280;41530;52.382;5.270;2023-02-12T15:35:25;104077.84;;;15.28;55.16